Time;durP1;ratioP1;P1;durP2;ratioP2;P2;SDS_P1;SDS_P2;PMS_P1;PMS_P2;Temp;Humidity;BMP_temperature;BMP_pressure;BME280_temperature;BME280_humidity;BME280_pressure;Samples;Min_cycle;Max_cycle;Signal;HPM_P1;HPM_P2
2021/09/18 00:00:32;;;;;;;;;;;;;;;;;;6192894;28;20041;-77
2021/09/18 00:03:33;;;;;;;;;;;;;;;;;;6195561;28;20060;-79
2021/09/18 00:06:35;;;;;;;;;;;;;;;;;;6197367;28;20091;-77
2021/09/18 00:09:37;;;;;;;;;;;;;;;;;;6202744;28;20147;-78
2021/09/18 00:12:39;;;;;;;;;;;;;;;;;;6195497;28;20148;-77
2021/09/18 00:15:41;;;;;;;;;;;;;;;;;;6195785;28;20014;-79
2021/09/18 00:18:42;;;;;;;;;;;;;;;;;;6198598;28;20108;-79
2021/09/18 00:21:44;;;;;;;;;;;;;;;;;;6198211;28;20017;-79
2021/09/18 00:24:46;;;;;;;;;;;;;;;;;;6206442;28;20096;-79
2021/09/18 00:27:48;;;;;;;;;;;;;;;;;;6202670;28;20149;-79
2021/09/18 00:30:49;;;;;;;;;;;;;;;;;;6199080;28;20116;-79
2021/09/18 00:33:51;;;;;;;;;;;;;;;;;;6198677;28;20014;-79
2021/09/18 00:36:52;;;;;;;;;;;;;;;;;;6203889;28;20145;-79
2021/09/18 00:39:55;;;;;;;;;;;;;;;;;;6213499;28;20205;-79
2021/09/18 00:42:56;;;;;;;;;;;;;;;;;;6200970;28;20076;-79
2021/09/18 00:45:58;;;;;;;;;;;;;;;;;;6202219;28;20061;-79
2021/09/18 00:48:59;;;;;;;;;;;;;;;;;;6204280;28;20138;-79
2021/09/18 00:52:01;;;;;;;;;;;;;;;;;;6201860;28;20104;-79
2021/09/18 00:55:04;;;;;;;;;;;;;;;;;;6208120;28;20010;-79
2021/09/18 00:58:05;;;;;;;;;;;;;;;;;;6203783;28;20010;-79
2021/09/18 01:01:07;;;;;;;;;;;;;;;;;;6205734;28;20112;-79
2021/09/18 01:04:08;;;;;;;;;;;;;;;;;;6198665;28;20085;-79
2021/09/18 01:07:10;;;;;;;;;;;;;;;;;;6204886;28;20010;-79
2021/09/18 01:10:13;;;;;;;;;;;;;;;;;;6204933;28;20156;-79
2021/09/18 01:13:17;;;;;;;;;;;;;;;;;;6208663;28;20018;-79
2021/09/18 01:16:19;;;;;;;;;;;;;;;;;;6198246;28;20010;-79
2021/09/18 01:19:20;;;;;;;;;;;;;;;;;;6212338;28;20020;-79
2021/09/18 01:22:22;;;;;;;;;;;;;;;;;;6199672;28;20018;-80
2021/09/18 01:25:25;;;;;;;;;;;;;;;;;;6208106;28;20020;-79
2021/09/18 01:28:26;;;;;;;;;;;;;;;;;;6207341;28;20014;-79
2021/09/18 01:31:28;;;;;;;;;;;;;;;;;;6202170;28;20020;-79
2021/09/18 01:34:30;;;;;;;;;;;;;;;;;;6201316;28;20029;-79
2021/09/18 01:37:31;;;;;;;;;;;;;;;;;;6199817;28;20056;-79
2021/09/18 01:40:34;;;;;;;;;;;;;;;;;;6203735;28;20104;-79
2021/09/18 01:43:36;;;;;;;;;;;;;;;;;;6210400;28;20366;-79
2021/09/18 01:46:37;;;;;;;;;;;;;;;;;;6202660;28;20077;-79
2021/09/18 01:49:38;;;;;;;;;;;;;;;;;;6211569;28;20417;-79
2021/09/18 01:52:47;;;;;;;;;;;;;;;;;;6203415;28;20025;-78
2021/09/18 01:55:50;;;;;;;;;;;;;;;;;;6220140;28;20619;-77
2021/09/18 01:58:52;;;;;;;;;;;;;;;;;;6233007;28;20101;-77
2021/09/18 02:01:53;;;;;;;;;;;;;;;;;;6217713;28;20104;-78
2021/09/18 02:04:54;;;;;;;;;;;;;;;;;;6233076;28;20544;-78
2021/09/18 02:07:56;;;;;;;;;;;;;;;;;;6226772;28;20017;-77
2021/09/18 02:10:59;;;;;;;;;;;;;;;;;;6227365;28;20124;-78
2021/09/18 02:14:00;;;;;;;;;;;;;;;;;;6233598;28;20532;-77
2021/09/18 02:17:02;;;;;;;;;;;;;;;;;;6215302;28;20100;-78
2021/09/18 02:20:04;;;;;;;;;;;;;;;;;;6203130;28;20204;-76
2021/09/18 02:23:06;;;;;;;;;;;;;;;;;;6205495;28;20189;-77
2021/09/18 02:26:09;;;;;;;;;;;;;;;;;;6201057;28;20104;-77
2021/09/18 02:29:10;;;;;;;;;;;;;;;;;;6216222;28;20141;-77
2021/09/18 02:32:11;;;;;;;;;;;;;;;;;;6197949;28;20675;-77
2021/09/18 02:35:13;;;;;;;;;;;;;;;;;;6205592;28;20481;-77
2021/09/18 02:38:15;;;;;;;;;;;;;;;;;;6203351;28;20105;-77
2021/09/18 02:41:18;;;;;;;;;;;;;;;;;;6202902;28;20307;-77
2021/09/18 02:44:19;;;;;;;;;;;;;;;;;;6209046;28;20355;-77
2021/09/18 02:47:20;;;;;;;;;;;;;;;;;;6197125;28;20101;-78
2021/09/18 02:50:22;;;;;;;;;;;;;;;;;;6199675;28;20108;-78
2021/09/18 02:53:24;;;;;;;;;;;;;;;;;;6203134;28;20423;-78
2021/09/18 02:56:27;;;;;;;;;;;;;;;;;;6203349;28;20057;-78
2021/09/18 02:59:28;;;;;;;;;;;;;;;;;;6194771;28;20459;-79
2021/09/18 03:02:30;;;;;;;;;;;;;;;;;;6197416;28;20148;-78
2021/09/18 03:05:31;;;;;;;;;;;;;;;;;;6201208;28;20025;-78
2021/09/18 03:08:32;;;;;;;;;;;;;;;;;;6210488;28;20021;-78
2021/09/18 03:11:35;;;;;;;;;;;;;;;;;;6196686;28;20144;-78
2021/09/18 03:14:37;;;;;;;;;;;;;;;;;;6207338;28;20152;-78
2021/09/18 03:17:38;;;;;;;;;;;;;;;;;;6191820;28;20774;-78
2021/09/18 03:20:39;;;;;;;;;;;;;;;;;;6204786;28;20029;-78
2021/09/18 03:23:41;;;;;;;;;;;;;;;;;;6204797;28;20045;-78
2021/09/18 03:26:44;;;;;;;;;;;;;;;;;;6198614;28;20489;-78
2021/09/18 03:29:45;;;;;;;;;;;;;;;;;;6204682;28;20493;-78
2021/09/18 03:32:47;;;;;;;;;;;;;;;;;;6198185;28;20010;-78
2021/09/18 03:35:49;;;;;;;;;;;;;;;;;;6195642;28;20108;-78
2021/09/18 03:38:51;;;;;;;;;;;;;;;;;;6203954;28;20359;-78
2021/09/18 03:41:53;;;;;;;;;;;;;;;;;;6202532;28;20029;-78
2021/09/18 03:44:55;;;;;;;;;;;;;;;;;;6210944;28;20100;-78
2021/09/18 03:47:56;;;;;;;;;;;;;;;;;;6196977;28;20017;-78
2021/09/18 03:50:57;;;;;;;;;;;;;;;;;;6198510;28;20111;-78
2021/09/18 03:53:59;;;;;;;;;;;;;;;;;;6210711;28;20014;-78
2021/09/18 03:57:02;;;;;;;;;;;;;;;;;;6209293;28;20729;-78
2021/09/18 04:00:03;;;;;;;;;;;;;;;;;;6213875;28;20096;-78
2021/09/18 04:03:05;;;;;;;;;;;;;;;;;;6197720;28;20484;-78
2021/09/18 04:06:06;;;;;;;;;;;;;;;;;;6204393;28;20048;-79
2021/09/18 04:09:08;;;;;;;;;;;;;;;;;;6208128;28;20124;-79
2021/09/18 04:12:10;;;;;;;;;;;;;;;;;;6210654;28;20064;-79
2021/09/18 04:15:12;;;;;;;;;;;;;;;;;;6195643;28;20069;-80
2021/09/18 04:18:13;;;;;;;;;;;;;;;;;;6208375;28;20060;-79
2021/09/18 04:21:15;;;;;;;;;;;;;;;;;;6200733;28;20053;-79
2021/09/18 04:24:16;;;;;;;;;;;;;;;;;;6205935;28;20014;-78
2021/09/18 04:27:19;;;;;;;;;;;;;;;;;;6198746;28;20063;-79
2021/09/18 04:30:21;;;;;;;;;;;;;;;;;;6203322;28;20056;-78
2021/09/18 04:33:22;;;;;;;;;;;;;;;;;;6199968;28;20136;-79
2021/09/18 04:36:23;;;;;;;;;;;;;;;;;;6201877;28;20073;-78
2021/09/18 04:39:25;;;;;;;;;;;;;;;;;;6212573;28;20092;-79
2021/09/18 04:42:28;;;;;;;;;;;;;;;;;;6198230;28;20153;-79
2021/09/18 04:45:29;;;;;;;;;;;;;;;;;;6192282;28;20397;-77
2021/09/18 04:48:31;;;;;;;;;;;;;;;;;;6202640;28;20089;-77
2021/09/18 04:51:32;;;;;;;;;;;;;;;;;;6198765;28;20010;-77
2021/09/18 04:54:33;;;;;;;;;;;;;;;;;;6199714;28;20014;-77
2021/09/18 04:57:36;;;;;;;;;;;;;;;;;;6198136;28;20156;-77
2021/09/18 05:00:38;;;;;;;;;;;;;;;;;;6193544;28;20010;-77
2021/09/18 05:03:39;;;;;;;;;;;;;;;;;;6198636;28;20068;-77
2021/09/18 05:06:41;;;;;;;;;;;;;;;;;;6199330;28;20100;-77
2021/09/18 05:09:42;;;;;;;;;;;;;;;;;;6205919;28;20458;-77
2021/09/18 05:12:45;;;;;;;;;;;;;;;;;;6202861;28;20109;-77
2021/09/18 05:15:46;;;;;;;;;;;;;;;;;;6191064;28;20018;-77
2021/09/18 05:18:47;;;;;;;;;;;;;;;;;;6201463;28;20071;-77
2021/09/18 05:21:49;;;;;;;;;;;;;;;;;;6204187;28;20434;-78
2021/09/18 05:24:51;;;;;;;;;;;;;;;;;;6206019;28;20065;-77
2021/09/18 05:27:54;;;;;;;;;;;;;;;;;;6206577;28;20016;-77
2021/09/18 05:30:55;;;;;;;;;;;;;;;;;;6206355;28;20018;-77
2021/09/18 05:33:56;;;;;;;;;;;;;;;;;;6205690;28;20230;-77
2021/09/18 05:36:58;;;;;;;;;;;;;;;;;;6203388;28;20103;-77
2021/09/18 05:39:59;;;;;;;;;;;;;;;;;;6207173;28;20104;-78
2021/09/18 05:43:02;;;;;;;;;;;;;;;;;;6201397;28;20099;-77
2021/09/18 05:46:03;;;;;;;;;;;;;;;;;;6197866;28;20213;-77
2021/09/18 05:49:05;;;;;;;;;;;;;;;;;;6209167;28;20163;-77
2021/09/18 05:52:06;;;;;;;;;;;;;;;;;;6197389;28;20527;-77
2021/09/18 05:55:08;;;;;;;;;;;;;;;;;;6206087;28;20013;-77
2021/09/18 05:58:11;;;;;;;;;;;;;;;;;;6200156;28;20010;-77
2021/09/18 06:01:12;;;;;;;;;;;;;;;;;;6200427;28;20035;-77
2021/09/18 06:04:14;;;;;;;;;;;;;;;;;;6207825;28;20084;-77
2021/09/18 06:07:15;;;;;;;;;;;;;;;;;;6202759;28;20128;-77
2021/09/18 06:10:16;;;;;;;;;;;;;;;;;;6203162;28;20079;-78
2021/09/18 06:13:19;;;;;;;;;;;;;;;;;;6212038;28;20112;-81
2021/09/18 06:16:22;;;;;;;;;;;;;;;;;;6200889;28;20009;-77
2021/09/18 06:19:23;;;;;;;;;;;;;;;;;;6208482;28;20434;-82
2021/09/18 06:22:25;;;;;;;;;;;;;;;;;;6201532;28;20503;-84
2021/09/18 06:25:26;;;;;;;;;;;;;;;;;;6209822;28;21035;-80
2021/09/18 06:28:29;;;;;;;;;;;;;;;;;;6207520;28;20474;-77
2021/09/18 06:31:30;;;;;;;;;;;;;;;;;;6202333;28;20381;-76
2021/09/18 06:34:32;;;;;;;;;;;;;;;;;;6206879;28;20591;-76
2021/09/18 06:41:38;;;;;;;33.53;23.98;;;;;;;;;;6323800;27;72528;-71
2021/09/18 06:46:18;;;;;;;29.20;21.95;;;;;;;;;;6267991;27;21256;-79
2021/09/18 06:49:19;;;;;;;33.25;22.85;;;;;;;;;;6255759;28;20651;-74
2021/09/18 06:52:21;;;;;;;32.42;23.63;;;;;;;;;;6254136;28;20075;-74
2021/09/18 06:55:23;;;;;;;33.00;22.98;;;;;;;;;;6253478;28;20140;-77
2021/09/18 06:58:24;;;;;;;29.80;22.48;;;;;;;;;;6256497;28;20143;-75
2021/09/18 07:01:27;;;;;;;31.30;23.30;;;;;;;;;;6253481;28;20089;-74
2021/09/18 07:04:29;;;;;;;31.92;21.70;;;;;;;;;;6261979;28;20079;-72
2021/09/18 07:07:31;;;;;;;27.38;19.83;;;;;;;;;;6233653;28;20060;-74
2021/09/18 07:10:32;;;;;;;26.25;19.67;;;;;;;;;;6252105;28;20053;-75
2021/09/18 07:13:34;;;;;;;24.33;19.00;;;;;;;;;;6244587;28;20456;-74
2021/09/18 07:16:37;;;;;;;23.48;19.00;;;;;;;;;;6227297;28;20050;-75
2021/09/18 07:19:38;;;;;;;23.00;19.05;;;;;;;;;;6260444;28;20041;-74
2021/09/18 07:22:40;;;;;;;23.02;17.55;;;;;;;;;;6256181;28;20060;-74
2021/09/18 07:25:42;;;;;;;23.63;18.60;;;;;;;;;;6246647;28;20136;-74
2021/09/18 07:28:43;;;;;;;23.70;18.80;;;;;;;;;;6250850;28;20164;-74
2021/09/18 07:31:46;;;;;;;24.65;18.90;;;;;;;;;;6254992;28;20155;-75
2021/09/18 07:34:48;;;;;;;25.45;18.45;;;;;;;;;;6247607;28;20085;-74
2021/09/18 07:37:49;;;;;;;21.83;17.95;;;;;;;;;;6231262;28;20056;-74
2021/09/18 07:40:55;;;;;;;21.58;17.27;;;;;;;;;;6245263;28;20501;-74
2021/09/18 07:44:00;;;;;;;20.88;17.00;;;;;;;;;;6261946;28;20061;-75
2021/09/18 07:47:04;;;;;;;20.45;15.70;;;;;;;;;;6251918;28;20384;-73
2021/09/18 07:50:07;;;;;;;21.00;15.65;;;;;;;;;;6229403;28;20050;-81
2021/09/18 07:53:08;;;;;;;16.67;13.40;;;;;;;;;;6245220;28;20167;-76
2021/09/18 07:56:10;;;;;;;20.65;13.90;;;;;;;;;;6225430;28;20042;-76
2021/09/18 07:59:12;;;;;;;18.83;15.00;;;;;;;;;;6220563;28;20137;-76
2021/09/18 08:02:14;;;;;;;17.00;13.20;;;;;;;;;;6217825;28;20073;-76
2021/09/18 08:05:16;;;;;;;18.20;14.23;;;;;;;;;;6239426;28;20119;-75
2021/09/18 08:08:18;;;;;;;17.80;14.45;;;;;;;;;;6240791;28;20179;-75
2021/09/18 08:11:20;;;;;;;18.65;14.95;;;;;;;;;;6238468;28;20167;-73
2021/09/18 08:14:22;;;;;;;14.93;12.85;;;;;;;;;;6243794;28;20048;-74
2021/09/18 08:17:25;;;;;;;19.05;14.75;;;;;;;;;;6235172;28;20120;-75
2021/09/18 08:20:26;;;;;;;17.27;13.30;;;;;;;;;;6237609;28;20609;-76
2021/09/18 08:23:28;;;;;;;17.52;13.10;;;;;;;;;;6242240;28;20085;-74
2021/09/18 08:26:30;;;;;;;20.08;13.75;;;;;;;;;;6239908;28;20106;-74
2021/09/18 08:29:32;;;;;;;13.63;9.83;;;;;;;;;;6245916;28;20053;-75
2021/09/18 08:32:35;;;;;;;18.83;13.40;;;;;;;;;;6236534;28;20488;-74
2021/09/18 08:35:36;;;;;;;;;;;;;;;;;;6237847;28;20131;-75
2021/09/18 08:38:38;;;;;;;18.48;12.98;;;;;;;;;;6243896;28;19974;-75
2021/09/18 08:41:45;;;;;;;18.80;13.82;;;;;;;;;;6228770;28;20511;-75
2021/09/18 08:44:46;;;;;;;18.23;13.32;;;;;;;;;;6252551;28;20396;-74
2021/09/18 08:47:50;;;;;;;16.77;13.88;;;;;;;;;;6233458;28;20049;-75
2021/09/18 08:50:52;;;;;;;17.83;14.98;;;;;;;;;;6229353;28;20565;-74
2021/09/18 08:53:55;;;;;;;18.90;14.95;;;;;;;;;;6217786;28;20066;-74
2021/09/18 08:56:57;;;;;;;18.50;14.77;;;;;;;;;;6221293;28;20046;-75
2021/09/18 08:59:59;;;;;;;17.67;14.70;;;;;;;;;;6219354;28;20574;-75
2021/09/18 09:03:04;;;;;;;18.30;15.10;;;;;;;;;;6206190;28;20545;-74
2021/09/18 09:06:08;;;;;;;22.77;16.25;;;;;;;;;;6208719;28;20557;-75
2021/09/18 09:09:10;;;;;;;19.25;15.35;;;;;;;;;;6222907;28;20175;-77
2021/09/18 09:12:25;;;;;;;19.80;15.20;;;;;;;;;;6236801;28;20559;-74
2021/09/18 09:15:28;;;;;;;19.55;14.75;;;;;;;;;;6236943;28;20073;-75
2021/09/18 09:18:31;;;;;;;18.25;14.93;;;;;;;;;;6235376;28;20183;-75
2021/09/18 09:21:32;;;;;;;17.08;14.48;;;;;;;;;;6232342;28;20063;-74
2021/09/18 09:24:35;;;;;;;18.40;14.75;;;;;;;;;;6240826;28;20187;-74
2021/09/18 09:27:36;;;;;;;19.42;14.57;;;;;;;;;;6232349;28;20057;-74
2021/09/18 09:30:38;;;;;;;17.52;14.65;;;;;;;;;;6238463;28;20127;-74
2021/09/18 09:33:58;;;;;;;18.73;14.82;;;;;;;;;;6236782;28;20076;-74
2021/09/18 09:37:00;;;;;;;21.35;15.38;;;;;;;;;;6218410;28;20184;-74
2021/09/18 09:40:08;;;;;;;17.07;13.90;;;;;;;;;;6241522;28;20056;-74
2021/09/18 09:43:12;;;;;;;20.08;13.88;;;;;;;;;;6237552;28;20482;-74
2021/09/18 09:46:14;;;;;;;15.60;13.60;;;;;;;;;;6230193;28;20048;-76
2021/09/18 09:49:17;;;;;;;15.32;12.73;;;;;;;;;;6233817;28;20507;-74
2021/09/18 09:52:21;;;;;;;16.27;12.45;;;;;;;;;;6221399;28;20111;-75
2021/09/18 09:55:23;;;;;;;17.27;13.55;;;;;;;;;;6236688;28;20045;-77
2021/09/18 09:58:24;;;;;;;19.13;14.40;;;;;;;;;;6227287;28;20049;-75
2021/09/18 10:01:28;;;;;;;16.60;13.95;;;;;;;;;;6211527;28;20080;-74
2021/09/18 10:04:31;;;;;;;13.70;12.30;;;;;;;;;;6215731;28;20042;-75
2021/09/18 10:07:32;;;;;;;14.43;11.85;;;;;;;;;;6230581;28;20132;-75
2021/09/18 10:10:35;;;;;;;15.18;11.75;;;;;;;;;;6228105;28;20132;-77
2021/09/18 10:13:38;;;;;;;14.60;12.02;;;;;;;;;;6232291;28;20059;-75
2021/09/18 10:16:40;;;;;;;13.48;11.65;;;;;;;;;;6239773;28;20053;-75
2021/09/18 10:23:14;;;;;;;21.25;14.30;;;;;;;;;;6230985;28;20038;-75
2021/09/18 10:26:16;;;;;;;17.95;15.15;;;;;;;;;;6231271;28;20062;-75
2021/09/18 10:29:32;;;;;;;19.67;14.38;;;;;;;;;;6239579;28;20137;-74
2021/09/18 10:32:45;;;;;;;15.18;13.20;;;;;;;;;;6232912;28;20094;-77
2021/09/18 10:35:56;;;;;;;19.27;14.50;;;;;;;;;;6234276;28;20106;-74
2021/09/18 10:39:07;;;;;;;16.33;14.57;;;;;;;;;;6239602;28;20056;-75
2021/09/18 10:42:09;;;;;;;15.10;11.82;;;;;;;;;;6235783;28;20077;-76
2021/09/18 10:45:13;;;;;;;14.82;12.10;;;;;;;;;;6239654;28;20120;-77
2021/09/18 10:48:49;;;;;;;15.73;13.75;;;;;;;;;;6238936;28;20128;-74
2021/09/18 10:51:52;;;;;;;13.82;12.40;;;;;;;;;;6230432;28;20061;-75
2021/09/18 10:55:09;;;;;;;17.25;13.73;;;;;;;;;;6237659;28;20470;-75
2021/09/18 10:58:10;;;;;;;15.45;12.45;;;;;;;;;;6233710;28;20049;-75
2021/09/18 11:01:21;;;;;;;13.93;12.38;;;;;;;;;;6232067;28;20049;-75
2021/09/18 11:04:39;;;;;;;15.20;12.32;;;;;;;;;;6235394;28;20045;-75
2021/09/18 11:07:46;;;;;;;14.25;12.68;;;;;;;;;;6226256;28;20101;-75
2021/09/18 11:10:53;;;;;;;12.75;11.13;;;;;;;;;;6230861;28;20046;-75
2021/09/18 11:13:57;;;;;;;12.93;11.57;;;;;;;;;;6237583;28;20128;-75
2021/09/18 11:16:58;;;;;;;12.05;10.38;;;;;;;;;;6229651;28;20046;-75
2021/09/18 11:20:12;;;;;;;11.30;10.10;;;;;;;;;;6237551;28;20114;-76
2021/09/18 11:23:32;;;;;;;13.45;10.48;;;;;;;;;;6234903;28;22921;-75
2021/09/18 11:26:52;;;;;;;13.20;11.32;;;;;;;;;;6232565;28;20183;-75
2021/09/18 11:29:53;;;;;;;13.48;12.07;;;;;;;;;;6232971;28;20124;-75
2021/09/18 11:32:55;;;;;;;14.02;12.60;;;;;;;;;;6229620;28;20045;-75
2021/09/18 11:35:57;;;;;;;12.20;10.85;;;;;;;;;;6244255;28;20163;-75
2021/09/18 11:39:00;;;;;;;11.02;9.93;;;;;;;;;;6256490;28;20128;-76
2021/09/18 11:42:10;;;;;;;11.75;10.48;;;;;;;;;;6241003;28;20045;-75
2021/09/18 11:45:14;;;;;;;10.35;9.25;;;;;;;;;;6241392;28;20469;-78
2021/09/18 11:48:20;;;;;;;13.45;10.82;;;;;;;;;;6235292;28;20376;-75
2021/09/18 11:51:22;;;;;;;11.50;9.95;;;;;;;;;;6234760;28;20068;-75
2021/09/18 11:54:25;;;;;;;12.35;11.15;;;;;;;;;;6242616;28;20045;-75
2021/09/18 11:57:27;;;;;;;12.45;10.95;;;;;;;;;;6237385;28;20489;-75
2021/09/18 12:00:28;;;;;;;12.32;11.13;;;;;;;;;;6232342;28;20422;-75
2021/09/18 12:03:31;;;;;;;12.07;10.88;;;;;;;;;;6235933;28;20049;-75
2021/09/18 12:06:33;;;;;;;12.98;11.38;;;;;;;;;;6238394;28;20513;-75
2021/09/18 12:09:36;;;;;;;11.85;10.50;;;;;;;;;;6234988;28;20141;-75
2021/09/18 12:12:38;;;;;;;11.18;9.98;;;;;;;;;;6237841;28;20127;-74
2021/09/18 12:15:43;;;;;;;12.30;11.00;;;;;;;;;;6234675;28;20064;-75
2021/09/18 12:18:47;;;;;;;14.13;12.57;;;;;;;;;;6238756;28;20116;-78
2021/09/18 12:21:48;;;;;;;16.02;14.32;;;;;;;;;;6236288;28;20683;-76
2021/09/18 12:24:53;;;;;;;15.68;12.95;;;;;;;;;;6227564;28;20074;-76
2021/09/18 12:27:56;;;;;;;14.38;11.20;;;;;;;;;;6237704;28;20822;-78
2021/09/18 12:30:58;;;;;;;13.40;11.63;;;;;;;;;;6235013;28;20390;-77
2021/09/18 12:34:07;;;;;;;15.15;12.30;;;;;;;;;;6243660;28;20124;-76
2021/09/18 12:37:10;;;;;;;13.02;11.63;;;;;;;;;;6238114;28;20064;-77
2021/09/18 12:40:19;;;;;;;14.57;11.68;;;;;;;;;;6241997;28;20452;-80
2021/09/18 12:43:22;;;;;;;13.48;12.07;;;;;;;;;;6241677;28;20128;-77
2021/09/18 12:46:25;;;;;;;12.45;11.23;;;;;;;;;;6237707;28;20086;-77
2021/09/18 12:49:26;;;;;;;14.70;11.93;;;;;;;;;;6244976;28;20042;-76
2021/09/18 12:52:32;;;;;;;14.25;11.90;;;;;;;;;;6240186;28;20187;-78
2021/09/18 12:55:35;;;;;;;12.63;10.30;;;;;;;;;;6235646;28;20060;-79
2021/09/18 12:58:37;;;;;;;11.80;10.57;;;;;;;;;;6238162;28;20199;-77
2021/09/18 13:01:38;;;;;;;;;;;;;;;;;;6230170;28;20053;-77
2021/09/18 13:04:43;;;;;;;14.52;12.50;;;;;;;;;;6239557;28;20001;-77
2021/09/18 13:07:55;;;;;;;16.08;12.50;;;;;;;;;;6209103;28;20072;-77
2021/09/18 13:11:10;;;;;;;13.02;11.73;;;;;;;;;;6213534;28;20125;-77
2021/09/18 13:14:13;;;;;;;13.77;10.85;;;;;;;;;;6223513;28;20081;-77
2021/09/18 13:17:18;;;;;;;14.38;12.77;;;;;;;;;;6207354;28;21043;-78
2021/09/18 13:20:20;;;;;;;14.82;13.15;;;;;;;;;;6240176;28;20049;-79
2021/09/18 13:23:21;;;;;;;14.15;12.73;;;;;;;;;;6239599;28;20041;-76
2021/09/18 13:26:24;;;;;;;14.63;12.75;;;;;;;;;;6222981;28;20042;-76
2021/09/18 13:29:26;;;;;;;16.08;13.93;;;;;;;;;;6246273;28;20049;-76
2021/09/18 13:32:28;;;;;;;13.45;10.88;;;;;;;;;;6231466;28;20041;-77
2021/09/18 13:35:30;;;;;;;15.23;11.43;;;;;;;;;;6231306;28;20628;-77
2021/09/18 13:38:31;;;;;;;15.98;10.88;;;;;;;;;;6235842;28;20128;-77
2021/09/18 13:41:34;;;;;;;10.50;9.40;;;;;;;;;;6230150;28;20095;-77
2021/09/18 13:44:36;;;;;;;12.68;11.38;;;;;;;;;;6236353;28;20110;-77
2021/09/18 13:47:38;;;;;;;13.13;11.35;;;;;;;;;;6226734;28;20579;-77
2021/09/18 13:50:40;;;;;;;10.98;9.88;;;;;;;;;;6232369;28;20176;-77
2021/09/18 13:53:41;;;;;;;12.57;11.35;;;;;;;;;;6240034;28;20493;-77
2021/09/18 13:56:44;;;;;;;11.70;9.73;;;;;;;;;;6235166;28;20456;-77
2021/09/18 13:59:47;;;;;;;11.95;10.45;;;;;;;;;;6233924;28;20494;-77
2021/09/18 14:02:48;;;;;;;14.85;10.82;;;;;;;;;;6212536;28;20061;-77
2021/09/18 14:05:50;;;;;;;12.55;10.90;;;;;;;;;;6237651;28;20124;-77
2021/09/18 14:08:52;;;;;;;11.10;9.48;;;;;;;;;;6251947;28;20168;-77
2021/09/18 14:11:55;;;;;;;12.48;9.77;;;;;;;;;;6241093;28;20050;-77
2021/09/18 14:14:56;;;;;;;13.48;10.43;;;;;;;;;;6228876;28;20134;-77
2021/09/18 14:17:58;;;;;;;15.70;10.23;;;;;;;;;;6226697;28;20132;-77
2021/09/18 14:21:00;;;;;;;13.20;11.30;;;;;;;;;;6230392;28;20523;-76
2021/09/18 14:24:01;;;;;;;11.50;8.80;;;;;;;;;;6244493;28;20056;-77
2021/09/18 14:27:04;;;;;;;12.10;8.60;;;;;;;;;;6231961;28;20107;-76
2021/09/18 14:30:08;;;;;;;10.95;9.88;;;;;;;;;;6241635;28;20045;-78
2021/09/18 14:33:10;;;;;;;11.85;9.35;;;;;;;;;;6227027;28;20123;-76
2021/09/18 14:36:11;;;;;;;8.65;7.68;;;;;;;;;;6232115;28;20070;-77
2021/09/18 14:39:13;;;;;;;12.53;9.70;;;;;;;;;;6241826;28;20049;-78
2021/09/18 14:42:17;;;;;;;9.15;7.82;;;;;;;;;;6238561;28;20605;-76
2021/09/18 14:45:19;;;;;;;10.65;8.35;;;;;;;;;;6239596;28;20458;-77
2021/09/18 14:48:20;;;;;;;13.27;8.60;;;;;;;;;;6212575;28;20123;-78
2021/09/18 14:51:22;;;;;;;9.43;8.43;;;;;;;;;;6213386;28;20038;-76
2021/09/18 14:54:24;;;;;;;11.60;9.23;;;;;;;;;;6234562;28;20046;-76
2021/09/18 14:57:27;;;;;;;13.32;9.45;;;;;;;;;;6239223;28;20070;-76
2021/09/18 15:00:28;;;;;;;11.02;9.57;;;;;;;;;;6239365;28;20168;-78
2021/09/18 15:03:31;;;;;;;10.15;8.02;;;;;;;;;;6217815;28;20099;-76
2021/09/18 15:06:33;;;;;;;10.55;9.45;;;;;;;;;;6218889;28;20061;-76
2021/09/18 15:09:34;;;;;;;10.82;8.23;;;;;;;;;;6231407;28;20141;-76
2021/09/18 15:12:37;;;;;;;9.40;8.40;;;;;;;;;;6243252;28;20116;-76
2021/09/18 15:15:39;;;;;;;12.65;8.65;;;;;;;;;;6226078;28;20052;-76
2021/09/18 15:18:41;;;;;;;11.50;8.65;;;;;;;;;;6244569;28;20759;-76
2021/09/18 15:21:42;;;;;;;9.82;6.90;;;;;;;;;;6238703;28;20131;-76
2021/09/18 15:24:44;;;;;;;8.90;7.57;;;;;;;;;;6246763;28;20098;-76
2021/09/18 15:27:47;;;;;;;9.10;7.07;;;;;;;;;;6242836;28;20053;-76
2021/09/18 15:30:48;;;;;;;11.82;7.65;;;;;;;;;;6242495;28;20573;-77
2021/09/18 15:33:50;;;;;;;10.65;8.80;;;;;;;;;;6240519;28;20136;-76
2021/09/18 15:36:52;;;;;;;12.73;8.25;;;;;;;;;;6223113;28;20057;-76
2021/09/18 15:39:53;;;;;;;8.75;7.85;;;;;;;;;;6231604;28;20132;-76
2021/09/18 15:42:56;;;;;;;7.82;7.07;;;;;;;;;;6228533;28;20072;-76
2021/09/18 15:45:58;;;;;;;10.43;7.90;;;;;;;;;;6227395;28;20122;-76
2021/09/18 15:49:00;;;;;;;8.90;7.13;;;;;;;;;;6240122;28;20103;-76
2021/09/18 15:52:01;;;;;;;11.80;8.90;;;;;;;;;;6235539;28;20122;-77
2021/09/18 15:55:03;;;;;;;8.90;6.80;;;;;;;;;;6241766;28;20045;-76
2021/09/18 15:58:06;;;;;;;10.03;7.63;;;;;;;;;;6232396;28;20045;-75
2021/09/18 16:01:08;;;;;;;11.60;7.22;;;;;;;;;;6231011;28;20132;-75
2021/09/18 16:04:10;;;;;;;12.70;6.28;;;;;;;;;;6239159;28;20053;-75
2021/09/18 16:07:11;;;;;;;8.90;7.25;;;;;;;;;;6232603;28;20046;-75
2021/09/18 16:10:14;;;;;;;10.98;7.50;;;;;;;;;;6241839;28;20136;-78
2021/09/18 16:13:17;;;;;;;7.88;6.78;;;;;;;;;;6237837;28;20547;-76
2021/09/18 16:16:19;;;;;;;8.18;6.60;;;;;;;;;;6231222;28;20191;-77
2021/09/18 16:19:20;;;;;;;8.80;7.25;;;;;;;;;;6238986;28;20565;-76
2021/09/18 16:22:22;;;;;;;9.65;8.27;;;;;;;;;;6233707;28;20081;-78
2021/09/18 16:25:24;;;;;;;10.32;7.03;;;;;;;;;;6237236;28;20500;-78
2021/09/18 16:28:27;;;;;;;11.50;8.05;;;;;;;;;;6238242;28;20051;-74
2021/09/18 16:31:28;;;;;;;11.57;7.85;;;;;;;;;;6228892;28;20088;-75
2021/09/18 16:34:30;;;;;;;12.13;8.73;;;;;;;;;;6234764;28;20115;-75
2021/09/18 16:37:32;;;;;;;12.07;9.02;;;;;;;;;;6224794;28;20792;-74
2021/09/18 16:40:33;;;;;;;15.10;10.95;;;;;;;;;;6244494;28;20045;-76
2021/09/18 16:43:36;;;;;;;13.10;9.75;;;;;;;;;;6239629;28;20056;-76
2021/09/18 16:46:38;;;;;;;12.20;10.90;;;;;;;;;;6223055;28;20940;-76
2021/09/18 16:49:40;;;;;;;14.25;11.52;;;;;;;;;;6239646;28;20141;-77
2021/09/18 16:52:41;;;;;;;15.70;11.60;;;;;;;;;;6230882;28;20109;-75
2021/09/18 16:55:43;;;;;;;14.02;10.80;;;;;;;;;;6233677;28;20061;-76
2021/09/18 16:58:46;;;;;;;12.32;9.52;;;;;;;;;;6240182;28;20498;-76
2021/09/18 17:01:48;;;;;;;14.25;10.65;;;;;;;;;;6230916;28;20087;-76
2021/09/18 17:04:52;;;;;;;14.43;10.48;;;;;;;;;;6237964;28;20187;-75
2021/09/18 17:07:54;;;;;;;14.52;11.50;;;;;;;;;;6228055;28;20042;-75
2021/09/18 17:10:56;;;;;;;13.68;11.02;;;;;;;;;;6232889;28;20131;-76
2021/09/18 17:13:59;;;;;;;16.77;10.55;;;;;;;;;;6236443;28;20041;-76
2021/09/18 17:17:00;;;;;;;;;;;;;;;;;;6229236;28;20050;-75
2021/09/18 17:20:02;;;;;;;15.07;11.50;;;;;;;;;;6243638;28;20011;-74
2021/09/18 17:23:04;;;;;;;14.63;11.98;;;;;;;;;;6233712;28;20428;-74
2021/09/18 17:26:06;;;;;;;15.25;10.55;;;;;;;;;;6238574;28;20504;-74
2021/09/18 17:29:09;;;;;;;14.40;10.80;;;;;;;;;;6249460;28;20146;-74
2021/09/18 17:32:10;;;;;;;;;;;;;;;;;;6243505;28;20546;-74
2021/09/18 17:35:12;;;;;;;12.32;10.35;;;;;;;;;;6224312;28;20010;-76
2021/09/18 17:38:13;;;;;;;16.00;11.82;;;;;;;;;;6238883;28;20185;-75
2021/09/18 17:41:15;;;;;;;14.85;13.07;;;;;;;;;;6237725;28;20417;-75
2021/09/18 17:44:18;;;;;;;14.95;12.57;;;;;;;;;;6245688;28;20053;-74
2021/09/18 17:47:21;;;;;;;16.35;12.70;;;;;;;;;;6232682;28;20132;-74
2021/09/18 17:50:23;;;;;;;15.48;12.15;;;;;;;;;;6239836;28;20053;-78
2021/09/18 17:53:25;;;;;;;15.98;11.98;;;;;;;;;;6242631;28;20132;-74
2021/09/18 17:56:28;;;;;;;18.05;12.02;;;;;;;;;;6234585;28;20046;-78
2021/09/18 17:59:31;;;;;;;15.63;12.38;;;;;;;;;;6236177;28;20195;-74
2021/09/18 18:02:32;;;;;;;;;;;;;;;;;;6211303;28;20188;-75
2021/09/18 18:05:34;;;;;;;15.25;13.30;;;;;;;;;;6228407;28;19921;-75
2021/09/18 18:08:36;;;;;;;16.45;13.80;;;;;;;;;;6242926;28;20072;-74
2021/09/18 18:11:37;;;;;;;17.08;12.98;;;;;;;;;;6237970;28;20128;-74
2021/09/18 18:14:40;;;;;;;19.75;12.65;;;;;;;;;;6243828;28;20147;-74
2021/09/18 18:17:42;;;;;;;15.60;12.10;;;;;;;;;;6232393;28;20151;-74
2021/09/18 18:20:47;;;;;;;15.73;12.45;;;;;;;;;;6232695;28;20045;-74
2021/09/18 18:23:48;;;;;;;18.50;14.02;;;;;;;;;;6235715;28;20045;-73
2021/09/18 18:26:50;;;;;;;15.90;12.05;;;;;;;;;;6230793;28;20103;-75
2021/09/18 18:29:53;;;;;;;17.80;12.68;;;;;;;;;;6245648;28;20136;-73
2021/09/18 18:32:55;;;;;;;17.73;13.27;;;;;;;;;;6232459;28;20140;-75
2021/09/18 18:35:56;;;;;;;15.93;12.50;;;;;;;;;;6240854;28;20069;-73
2021/09/18 18:38:58;;;;;;;16.50;12.60;;;;;;;;;;6250331;28;20049;-73
2021/09/18 18:42:00;;;;;;;14.30;11.77;;;;;;;;;;6213392;28;20494;-73
2021/09/18 18:45:03;;;;;;;14.90;11.52;;;;;;;;;;6219757;28;20124;-72
2021/09/18 18:48:05;;;;;;;17.80;11.70;;;;;;;;;;6229177;28;20111;-74
2021/09/18 18:51:07;;;;;;;15.02;10.70;;;;;;;;;;6217758;28;20054;-73
2021/09/18 18:54:09;;;;;;;18.75;11.05;;;;;;;;;;6239551;28;20077;-73